Time;durP1;ratioP1;P1;durP2;ratioP2;P2;SDS_P1;SDS_P2;PMS_P1;PMS_P2;Temp;Humidity;BMP_temperature;BMP_pressure;BME280_temperature;BME280_humidity;BME280_pressure;Samples;Min_cycle;Max_cycle;Signal;HPM_P1;HPM_P2
2022/03/26 00:00:50;;;;;;;22.25;12.68;;;;;;;;;;4915687;29;20067;-80
2022/03/26 00:03:16;;;;;;;22.70;12.65;;;;;;;;;;4909490;29;20119;-84
2022/03/26 00:05:43;;;;;;;22.83;12.45;;;;;;;;;;4900131;29;20024;-81
2022/03/26 00:08:09;;;;;;;21.80;12.23;;;;;;;;;;4911586;29;20131;-81
2022/03/26 00:10:35;;;;;;;24.17;12.65;;;;;;;;;;4909645;29;22347;-81
2022/03/26 00:13:01;;;;;;;21.45;12.20;;;;;;;;;;4908868;29;20037;-81
2022/03/26 00:15:26;;;;;;;24.02;13.13;;;;;;;;;;4896801;29;20370;-81
2022/03/26 00:17:52;;;;;;;21.17;12.82;;;;;;;;;;4913807;29;20032;-86
2022/03/26 00:20:17;;;;;;;22.73;12.32;;;;;;;;;;4894645;29;20123;-80
2022/03/26 00:22:42;;;;;;;23.25;12.43;;;;;;;;;;4896387;29;20031;-81
2022/03/26 00:25:10;;;;;;;25.30;13.05;;;;;;;;;;4900896;29;20116;-85
2022/03/26 00:27:36;;;;;;;22.60;12.25;;;;;;;;;;4910955;29;20076;-80
2022/03/26 00:30:03;;;;;;;22.67;12.48;;;;;;;;;;4897282;29;20024;-86
2022/03/26 00:32:29;;;;;;;22.52;13.40;;;;;;;;;;4896038;29;20044;-81
2022/03/26 00:34:55;;;;;;;24.58;12.77;;;;;;;;;;4918126;29;20040;-86
2022/03/26 00:37:20;;;;;;;20.52;12.55;;;;;;;;;;4894062;29;20055;-86
2022/03/26 00:39:46;;;;;;;24.67;12.55;;;;;;;;;;4916453;29;20032;-86
2022/03/26 00:42:11;;;;;;;26.25;13.20;;;;;;;;;;4909303;29;20136;-85
2022/03/26 00:44:37;;;;;;;25.42;12.80;;;;;;;;;;4895559;29;20021;-86
2022/03/26 00:47:04;;;;;;;23.60;13.07;;;;;;;;;;4897451;29;20039;-82
2022/03/26 00:49:30;;;;;;;23.10;13.30;;;;;;;;;;4895961;29;20031;-81
2022/03/26 00:51:55;;;;;;;20.95;12.18;;;;;;;;;;4899832;29;20538;-81
2022/03/26 00:54:20;;;;;;;24.80;12.55;;;;;;;;;;4897398;29;20047;-83
2022/03/26 00:56:46;;;;;;;23.45;13.27;;;;;;;;;;4896741;29;20036;-84
2022/03/26 00:59:11;;;;;;;25.30;13.57;;;;;;;;;;4892932;29;20106;-85
2022/03/26 01:01:36;;;;;;;21.75;12.50;;;;;;;;;;4897245;29;20033;-84
2022/03/26 01:04:03;;;;;;;22.90;12.40;;;;;;;;;;4901324;29;20029;-81
2022/03/26 01:06:29;;;;;;;21.92;12.32;;;;;;;;;;4897549;29;20058;-81
2022/03/26 01:08:54;;;;;;;21.83;12.30;;;;;;;;;;4894274;29;20072;-85
2022/03/26 01:11:20;;;;;;;20.63;13.07;;;;;;;;;;4891876;29;20033;-81
2022/03/26 01:13:48;;;;;;;26.60;12.82;;;;;;;;;;4896850;29;20036;-85
2022/03/26 01:16:13;;;;;;;19.73;11.98;;;;;;;;;;4900456;29;20021;-80
2022/03/26 01:18:40;;;;;;;24.00;12.57;;;;;;;;;;4897761;29;20047;-81
2022/03/26 01:21:06;;;;;;;20.35;12.63;;;;;;;;;;4895602;29;20780;-81
2022/03/26 01:23:31;;;;;;;20.92;12.05;;;;;;;;;;4893285;29;20024;-81
2022/03/26 01:25:58;;;;;;;21.70;12.32;;;;;;;;;;4912010;29;20044;-85
2022/03/26 01:28:24;;;;;;;22.85;13.02;;;;;;;;;;4894002;29;20029;-81
2022/03/26 01:30:49;;;;;;;25.02;12.60;;;;;;;;;;4894441;29;20156;-86
2022/03/26 01:33:14;;;;;;;20.52;12.55;;;;;;;;;;4896343;29;20477;-81
2022/03/26 01:35:40;;;;;;;26.80;12.40;;;;;;;;;;4895738;29;20040;-81
2022/03/26 01:38:06;;;;;;;22.35;12.25;;;;;;;;;;4896164;29;20467;-85
2022/03/26 01:40:34;;;;;;;20.75;12.30;;;;;;;;;;4896591;29;20036;-81
2022/03/26 01:43:00;;;;;;;17.75;11.05;;;;;;;;;;4904516;29;20048;-86
2022/03/26 01:45:27;;;;;;;20.27;12.35;;;;;;;;;;4911998;29;20020;-85
2022/03/26 01:47:53;;;;;;;20.90;11.90;;;;;;;;;;4901097;29;20027;-85
2022/03/26 01:50:18;;;;;;;21.23;11.30;;;;;;;;;;4911413;29;20036;-86
2022/03/26 01:52:43;;;;;;;20.73;11.75;;;;;;;;;;4910709;29;20172;-85
2022/03/26 01:55:09;;;;;;;21.00;12.00;;;;;;;;;;4913193;29;20032;-80
2022/03/26 01:57:34;;;;;;;28.42;13.88;;;;;;;;;;4914089;29;20032;-85
2022/03/26 02:00:00;;;;;;;22.85;11.88;;;;;;;;;;4914072;29;20489;-80
2022/03/26 02:02:25;;;;;;;20.27;11.63;;;;;;;;;;4899840;29;20032;-81
2022/03/26 02:04:51;;;;;;;20.65;11.95;;;;;;;;;;4898797;29;20028;-85
2022/03/26 02:07:17;;;;;;;19.83;11.75;;;;;;;;;;4915553;29;20032;-81
2022/03/26 02:09:43;;;;;;;20.50;11.80;;;;;;;;;;4913003;29;20036;-80
2022/03/26 02:12:41;;;;;;;22.15;11.55;;;;;;;;;;4896482;29;20128;-81
2022/03/26 02:15:08;;;;;;;20.05;11.82;;;;;;;;;;4859523;29;20401;-86
2022/03/26 02:17:34;;;;;;;19.45;11.55;;;;;;;;;;4915334;29;20392;-81
2022/03/26 02:20:01;;;;;;;20.33;11.20;;;;;;;;;;4913469;29;20125;-81
2022/03/26 02:22:28;;;;;;;20.58;11.93;;;;;;;;;;4897176;29;20156;-85
2022/03/26 02:24:54;;;;;;;20.00;11.73;;;;;;;;;;4901358;29;20028;-86
2022/03/26 02:27:22;;;;;;;22.02;11.23;;;;;;;;;;4905575;29;20036;-85
2022/03/26 02:29:49;;;;;;;20.92;11.07;;;;;;;;;;4900030;29;20039;-81
2022/03/26 02:32:14;;;;;;;18.65;12.05;;;;;;;;;;4901796;29;20035;-81
2022/03/26 02:34:39;;;;;;;17.58;11.00;;;;;;;;;;4897497;29;20450;-85
2022/03/26 02:37:05;;;;;;;20.17;11.75;;;;;;;;;;4914440;29;20027;-86
2022/03/26 02:39:30;;;;;;;22.50;12.10;;;;;;;;;;4914330;29;20481;-81
2022/03/26 02:41:56;;;;;;;20.60;12.45;;;;;;;;;;4897606;29;20554;-86
2022/03/26 02:44:21;;;;;;;19.60;11.25;;;;;;;;;;4913004;29;20035;-81
2022/03/26 02:46:47;;;;;;;23.23;11.18;;;;;;;;;;4898113;29;20035;-81
2022/03/26 02:49:13;;;;;;;21.42;10.82;;;;;;;;;;4898516;29;20051;-85
2022/03/26 02:51:39;;;;;;;18.92;11.48;;;;;;;;;;4912565;29;20036;-87
2022/03/26 02:54:05;;;;;;;20.80;11.57;;;;;;;;;;4916362;29;20092;-86
2022/03/26 02:56:31;;;;;;;20.58;11.30;;;;;;;;;;4901941;29;20488;-85
2022/03/26 02:58:56;;;;;;;20.33;10.95;;;;;;;;;;4894050;29;20032;-85
2022/03/26 03:01:23;;;;;;;21.88;11.07;;;;;;;;;;4915215;29;20075;-86
2022/03/26 03:03:49;;;;;;;20.92;11.73;;;;;;;;;;4899936;29;20420;-80
2022/03/26 03:06:14;;;;;;;22.00;11.90;;;;;;;;;;4914751;29;20119;-80
2022/03/26 03:08:40;;;;;;;22.08;11.55;;;;;;;;;;4895681;29;20028;-79
2022/03/26 03:11:05;;;;;;;19.60;12.35;;;;;;;;;;4898424;29;20032;-86
2022/03/26 03:13:30;;;;;;;21.58;11.90;;;;;;;;;;4894777;29;20043;-85
2022/03/26 03:15:58;;;;;;;20.88;11.30;;;;;;;;;;4912005;29;20434;-81
2022/03/26 03:18:23;;;;;;;20.80;12.23;;;;;;;;;;4898078;29;20504;-79
2022/03/26 03:20:49;;;;;;;20.92;11.70;;;;;;;;;;4898104;29;20039;-85
2022/03/26 03:23:14;;;;;;;22.25;12.18;;;;;;;;;;4914107;29;20028;-80
2022/03/26 03:25:39;;;;;;;22.52;12.15;;;;;;;;;;4914303;29;20024;-85
2022/03/26 03:28:05;;;;;;;19.23;11.43;;;;;;;;;;4914594;29;20028;-80
2022/03/26 03:30:31;;;;;;;24.63;12.05;;;;;;;;;;4898010;29;20042;-79
2022/03/26 03:32:56;;;;;;;21.90;12.57;;;;;;;;;;4895056;29;20036;-80
2022/03/26 03:35:22;;;;;;;20.40;11.75;;;;;;;;;;4894228;29;20071;-85
2022/03/26 03:37:48;;;;;;;20.83;12.60;;;;;;;;;;4912558;29;20032;-80
2022/03/26 03:40:13;;;;;;;19.10;11.68;;;;;;;;;;4897034;29;20028;-80
2022/03/26 03:42:39;;;;;;;25.85;13.07;;;;;;;;;;4896908;29;20052;-85
2022/03/26 03:45:05;;;;;;;25.48;13.13;;;;;;;;;;4913716;29;20171;-85
2022/03/26 03:47:30;;;;;;;25.60;11.82;;;;;;;;;;4910306;29;20396;-80
2022/03/26 03:49:56;;;;;;;22.67;12.43;;;;;;;;;;4913596;29;20035;-86
2022/03/26 03:52:21;;;;;;;24.60;12.40;;;;;;;;;;4896692;29;20032;-86
2022/03/26 03:54:46;;;;;;;23.40;12.80;;;;;;;;;;4913107;29;20063;-80
2022/03/26 03:57:12;;;;;;;26.85;12.88;;;;;;;;;;4914202;29;20036;-86
2022/03/26 03:59:41;;;;;;;25.50;12.80;;;;;;;;;;4912776;29;20024;-85
2022/03/26 04:02:09;;;;;;;23.50;12.45;;;;;;;;;;4896826;29;20032;-85
2022/03/26 04:04:40;;;;;;;22.33;12.25;;;;;;;;;;4911819;29;20032;-86
2022/03/26 04:07:05;;;;;;;25.83;12.80;;;;;;;;;;4914630;29;20373;-86
2022/03/26 04:09:31;;;;;;;20.60;12.63;;;;;;;;;;4911731;29;20032;-80
2022/03/26 04:11:56;;;;;;;24.42;12.90;;;;;;;;;;4914295;29;20063;-85
2022/03/26 04:14:21;;;;;;;23.63;12.05;;;;;;;;;;4898910;29;20024;-80
2022/03/26 04:16:47;;;;;;;19.20;11.75;;;;;;;;;;4894144;29;20434;-80
2022/03/26 04:19:13;;;;;;;24.20;12.93;;;;;;;;;;4896512;29;20038;-87
2022/03/26 04:21:38;;;;;;;25.95;13.02;;;;;;;;;;4900621;29;20145;-85
2022/03/26 04:24:04;;;;;;;22.63;13.30;;;;;;;;;;4918777;29;20040;-86
2022/03/26 04:26:29;;;;;;;23.08;13.10;;;;;;;;;;4920382;29;20040;-86
2022/03/26 04:28:55;;;;;;;25.38;13.98;;;;;;;;;;4917867;29;20031;-79
2022/03/26 04:31:20;;;;;;;24.35;13.35;;;;;;;;;;4916577;29;20043;-81
2022/03/26 04:33:45;;;;;;;22.35;13.10;;;;;;;;;;4898071;29;20036;-80
2022/03/26 04:36:13;;;;;;;23.58;13.57;;;;;;;;;;4916010;29;20086;-84
2022/03/26 04:38:38;;;;;;;22.13;12.73;;;;;;;;;;4915829;29;20028;-86
2022/03/26 04:41:03;;;;;;;23.42;13.32;;;;;;;;;;4916836;29;20028;-80
2022/03/26 04:43:29;;;;;;;23.70;13.32;;;;;;;;;;4916472;29;20148;-80
2022/03/26 04:45:54;;;;;;;23.50;13.57;;;;;;;;;;4915097;29;20080;-79
2022/03/26 04:48:19;;;;;;;24.42;13.65;;;;;;;;;;4900091;29;20396;-80
2022/03/26 04:50:45;;;;;;;22.08;12.98;;;;;;;;;;4916385;29;20497;-85
2022/03/26 04:53:13;;;;;;;24.40;13.40;;;;;;;;;;4901757;29;20055;-85
2022/03/26 04:55:39;;;;;;;25.15;13.65;;;;;;;;;;4916502;29;20020;-85
2022/03/26 04:58:04;;;;;;;23.88;12.82;;;;;;;;;;4910682;29;20477;-84
2022/03/26 05:00:29;;;;;;;25.92;14.07;;;;;;;;;;4901498;29;20028;-80
2022/03/26 05:02:55;;;;;;;23.45;14.23;;;;;;;;;;4913847;29;20102;-84
2022/03/26 05:05:20;;;;;;;24.90;13.45;;;;;;;;;;4912612;29;20059;-80
2022/03/26 05:07:46;;;;;;;25.95;13.98;;;;;;;;;;4897364;29;20035;-85
2022/03/26 05:10:17;;;;;;;29.88;14.57;;;;;;;;;;4898028;29;20083;-84
2022/03/26 05:12:43;;;;;;;23.92;13.85;;;;;;;;;;4900628;29;20032;-85
2022/03/26 05:15:09;;;;;;;26.73;13.63;;;;;;;;;;4897980;29;20048;-85
2022/03/26 05:17:36;;;;;;;24.52;14.20;;;;;;;;;;4914815;29;20028;-80
2022/03/26 05:20:01;;;;;;;24.30;13.95;;;;;;;;;;4916444;29;20127;-80
2022/03/26 05:22:28;;;;;;;23.17;13.07;;;;;;;;;;4915253;29;20421;-84
2022/03/26 05:24:54;;;;;;;26.40;13.82;;;;;;;;;;4899513;29;20028;-86
2022/03/26 05:27:19;;;;;;;27.58;14.77;;;;;;;;;;4899645;29;20035;-81
2022/03/26 05:29:46;;;;;;;25.52;14.35;;;;;;;;;;4898399;29;20028;-80
2022/03/26 05:32:12;;;;;;;25.30;14.32;;;;;;;;;;4902013;29;20035;-84
2022/03/26 05:34:37;;;;;;;25.23;14.27;;;;;;;;;;4917299;29;20389;-85
2022/03/26 05:37:04;;;;;;;27.63;14.68;;;;;;;;;;4912687;29;20075;-79
2022/03/26 05:39:30;;;;;;;30.13;15.32;;;;;;;;;;4915046;29;20126;-84
2022/03/26 05:41:55;;;;;;;30.83;15.73;;;;;;;;;;4895821;29;20104;-79
2022/03/26 05:44:21;;;;;;;27.95;14.63;;;;;;;;;;4910335;29;20060;-84
2022/03/26 05:46:46;;;;;;;25.98;15.38;;;;;;;;;;4903905;29;20509;-85
2022/03/26 05:49:11;;;;;;;26.98;15.70;;;;;;;;;;4913883;29;20081;-79
2022/03/26 05:51:37;;;;;;;26.65;14.77;;;;;;;;;;4892850;29;20028;-84
2022/03/26 05:54:02;;;;;;;26.92;14.88;;;;;;;;;;4915667;29;20126;-79
2022/03/26 05:56:28;;;;;;;27.35;14.20;;;;;;;;;;4899024;29;20115;-85
2022/03/26 05:58:53;;;;;;;24.92;14.55;;;;;;;;;;4895340;29;20035;-80
2022/03/26 06:01:21;;;;;;;24.98;14.20;;;;;;;;;;4913416;29;20067;-80
2022/03/26 06:03:46;;;;;;;29.00;14.15;;;;;;;;;;4897151;29;20060;-85
2022/03/26 06:06:11;;;;;;;27.98;14.88;;;;;;;;;;4919128;29;20024;-80
2022/03/26 06:08:37;;;;;;;28.80;15.77;;;;;;;;;;4903324;29;20473;-85
2022/03/26 06:11:02;;;;;;;25.23;14.35;;;;;;;;;;4914386;29;20047;-80
2022/03/26 06:13:27;;;;;;;27.35;14.40;;;;;;;;;;4901353;29;20139;-84
2022/03/26 06:15:53;;;;;;;29.45;15.38;;;;;;;;;;4913301;29;20044;-80
2022/03/26 06:18:18;;;;;;;27.15;15.50;;;;;;;;;;4898540;29;20035;-79
2022/03/26 06:20:43;;;;;;;28.00;15.80;;;;;;;;;;4896250;29;20118;-80
2022/03/26 06:23:09;;;;;;;28.95;15.40;;;;;;;;;;4897947;29;20115;-85
2022/03/26 06:25:34;;;;;;;27.35;15.15;;;;;;;;;;4897916;29;20091;-85
2022/03/26 06:28:00;;;;;;;27.40;15.43;;;;;;;;;;4913571;29;20028;-84
2022/03/26 06:30:25;;;;;;;27.05;15.15;;;;;;;;;;4914096;29;20039;-80
2022/03/26 06:32:52;;;;;;;29.90;15.35;;;;;;;;;;4898926;29;20123;-86
2022/03/26 06:35:18;;;;;;;31.77;15.23;;;;;;;;;;4912584;29;20028;-85
2022/03/26 06:37:43;;;;;;;26.27;15.00;;;;;;;;;;4897905;29;20046;-80
2022/03/26 06:40:09;;;;;;;27.77;15.07;;;;;;;;;;4896479;29;20473;-84
2022/03/26 06:42:34;;;;;;;27.67;15.00;;;;;;;;;;4911093;29;20548;-85
2022/03/26 06:45:00;;;;;;;27.92;15.38;;;;;;;;;;4896889;29;20437;-85
2022/03/26 06:47:26;;;;;;;31.63;16.10;;;;;;;;;;4914195;29;20382;-78
2022/03/26 06:49:52;;;;;;;31.40;16.33;;;;;;;;;;4899382;29;20060;-85
2022/03/26 06:52:18;;;;;;;28.17;15.10;;;;;;;;;;4913298;29;20044;-81
2022/03/26 06:54:43;;;;;;;31.58;16.13;;;;;;;;;;4895999;29;20035;-85
2022/03/26 06:57:08;;;;;;;28.25;15.60;;;;;;;;;;4899233;29;20024;-84
2022/03/26 06:59:34;;;;;;;30.10;15.45;;;;;;;;;;4915720;29;20032;-86
2022/03/26 07:01:59;;;;;;;32.50;15.68;;;;;;;;;;4896945;29;20054;-79
2022/03/26 07:04:24;;;;;;;29.45;16.15;;;;;;;;;;4895685;29;20473;-85
2022/03/26 07:06:49;;;;;;;28.55;16.02;;;;;;;;;;4913476;29;20039;-80
2022/03/26 07:09:15;;;;;;;28.27;16.05;;;;;;;;;;4912167;29;20043;-84
2022/03/26 07:11:40;;;;;;;30.73;16.02;;;;;;;;;;4896246;29;20087;-84
2022/03/26 07:14:05;;;;;;;33.50;16.75;;;;;;;;;;4909519;29;20032;-85
2022/03/26 07:16:31;;;;;;;28.08;15.65;;;;;;;;;;4913115;29;20052;-85
2022/03/26 07:18:56;;;;;;;32.85;17.10;;;;;;;;;;4913895;29;20036;-79
2022/03/26 07:21:21;;;;;;;33.42;17.52;;;;;;;;;;4895813;29;20036;-79
2022/03/26 07:23:47;;;;;;;31.50;17.33;;;;;;;;;;4895797;29;20039;-85
2022/03/26 07:26:12;;;;;;;36.20;18.52;;;;;;;;;;4913861;29;20012;-85
2022/03/26 07:28:37;;;;;;;36.03;18.65;;;;;;;;;;4910786;29;20039;-85
2022/03/26 07:31:03;;;;;;;37.72;19.50;;;;;;;;;;4915274;29;20031;-80
2022/03/26 07:33:29;;;;;;;41.97;19.73;;;;;;;;;;4898466;29;20441;-85
2022/03/26 07:35:54;;;;;;;41.35;20.25;;;;;;;;;;4911251;29;20078;-80
2022/03/26 07:38:20;;;;;;;40.67;20.40;;;;;;;;;;4901539;29;20039;-80
2022/03/26 07:40:45;;;;;;;38.05;20.27;;;;;;;;;;4913101;29;20067;-85
2022/03/26 07:43:10;;;;;;;39.53;20.15;;;;;;;;;;4900524;29;21315;-84
2022/03/26 07:45:36;;;;;;;42.50;20.58;;;;;;;;;;4898089;29;20393;-85
2022/03/26 07:48:02;;;;;;;41.65;20.42;;;;;;;;;;4897671;29;20027;-85
2022/03/26 07:50:28;;;;;;;38.25;19.20;;;;;;;;;;4915790;29;20042;-80
2022/03/26 07:52:53;;;;;;;38.22;20.92;;;;;;;;;;4902008;29;20020;-80
2022/03/26 07:55:19;;;;;;;38.38;20.02;;;;;;;;;;4901485;29;20404;-80
2022/03/26 07:57:45;;;;;;;41.15;20.83;;;;;;;;;;4902574;29;20039;-80
2022/03/26 08:00:11;;;;;;;40.88;20.02;;;;;;;;;;4900966;29;20028;-81
2022/03/26 08:02:36;;;;;;;42.20;20.58;;;;;;;;;;4899517;29;20111;-86
2022/03/26 08:05:02;;;;;;;40.15;21.00;;;;;;;;;;4901906;29;20072;-80
2022/03/26 08:07:28;;;;;;;35.75;19.83;;;;;;;;;;4900415;29;20373;-81
2022/03/26 08:09:53;;;;;;;39.97;19.85;;;;;;;;;;4904298;29;20020;-84
2022/03/26 08:12:18;;;;;;;37.90;20.08;;;;;;;;;;4923370;29;20050;-80
2022/03/26 08:14:44;;;;;;;44.53;22.90;;;;;;;;;;4918236;29;20032;-81
2022/03/26 08:17:09;;;;;;;40.13;22.23;;;;;;;;;;4918102;29;20027;-80
2022/03/26 08:19:35;;;;;;;45.67;22.42;;;;;;;;;;4916739;29;20020;-80
2022/03/26 08:22:04;;;;;;;39.10;22.05;;;;;;;;;;4904328;29;20056;-84
2022/03/26 08:24:29;;;;;;;39.45;22.27;;;;;;;;;;4899932;29;20020;-81
2022/03/26 08:26:55;;;;;;;41.63;21.50;;;;;;;;;;4913205;29;20092;-85
2022/03/26 08:29:20;;;;;;;41.33;20.85;;;;;;;;;;4901515;29;20477;-81
2022/03/26 08:31:45;;;;;;;40.42;20.92;;;;;;;;;;4915746;29;20091;-84
2022/03/26 08:34:12;;;;;;;44.38;21.33;;;;;;;;;;4901221;29;20044;-85
2022/03/26 08:36:37;;;;;;;37.45;18.83;;;;;;;;;;4898695;29;20024;-80
2022/03/26 08:39:03;;;;;;;35.28;19.95;;;;;;;;;;4899359;29;20042;-86
2022/03/26 08:41:28;;;;;;;37.03;18.95;;;;;;;;;;4894977;29;20107;-83
2022/03/26 08:43:54;;;;;;;37.20;20.23;;;;;;;;;;4891402;29;20059;-83
2022/03/26 08:46:20;;;;;;;41.00;20.00;;;;;;;;;;4906791;29;20049;-83
2022/03/26 08:48:46;;;;;;;41.85;20.98;;;;;;;;;;4900325;29;20028;-84
2022/03/26 08:51:12;;;;;;;43.13;18.55;;;;;;;;;;4902887;29;20491;-81
2022/03/26 08:53:37;;;;;;;37.72;19.05;;;;;;;;;;4895655;29;20028;-82
2022/03/26 08:56:04;;;;;;;34.97;19.15;;;;;;;;;;4895636;29;20029;-81
2022/03/26 08:58:30;;;;;;;39.33;20.00;;;;;;;;;;4897686;29;20024;-80
2022/03/26 09:00:56;;;;;;;40.20;20.17;;;;;;;;;;4896324;29;20114;-83
2022/03/26 09:03:21;;;;;;;39.28;20.63;;;;;;;;;;4895939;29;20028;-84
2022/03/26 09:05:51;;;;;;;37.05;20.38;;;;;;;;;;4894030;29;20367;-84
2022/03/26 09:08:17;;;;;;;39.63;19.50;;;;;;;;;;4896316;29;20163;-81
2022/03/26 09:10:43;;;;;;;37.83;20.55;;;;;;;;;;4895307;29;20112;-83
2022/03/26 09:13:08;;;;;;;47.33;21.60;;;;;;;;;;4893790;29;20028;-85
2022/03/26 09:15:34;;;;;;;44.28;21.45;;;;;;;;;;4897900;29;20395;-86
2022/03/26 09:17:59;;;;;;;41.15;21.48;;;;;;;;;;4910372;29;20066;-80
2022/03/26 09:20:26;;;;;;;40.42;20.67;;;;;;;;;;4898019;29;20020;-84
2022/03/26 09:22:52;;;;;;;47.08;20.77;;;;;;;;;;4893738;29;20043;-87
2022/03/26 09:25:19;;;;;;;45.10;20.92;;;;;;;;;;4898712;29;20099;-83
2022/03/26 09:27:44;;;;;;;38.05;19.35;;;;;;;;;;4896599;29;20029;-86
2022/03/26 09:30:10;;;;;;;45.28;20.80;;;;;;;;;;4894745;29;20036;-82
2022/03/26 09:32:36;;;;;;;42.03;21.15;;;;;;;;;;4908279;29;20501;-81
2022/03/26 09:35:01;;;;;;;47.67;20.77;;;;;;;;;;4895230;29;20033;-85
2022/03/26 09:37:26;;;;;;;38.50;19.05;;;;;;;;;;4895331;29;20025;-84
2022/03/26 09:39:52;;;;;;;38.45;18.88;;;;;;;;;;4894812;29;20035;-90
2022/03/26 09:42:17;;;;;;;37.78;19.30;;;;;;;;;;4894431;29;20790;-84
2022/03/26 09:44:43;;;;;;;32.55;17.33;;;;;;;;;;4895625;29;20043;-82
2022/03/26 09:47:10;;;;;;;31.90;16.80;;;;;;;;;;4909696;29;20721;-83
2022/03/26 09:49:38;;;;;;;30.92;15.73;;;;;;;;;;4913896;29;20047;-80
2022/03/26 09:52:05;;;;;;;32.50;16.90;;;;;;;;;;4911498;29;20409;-80
2022/03/26 09:54:31;;;;;;;31.67;16.58;;;;;;;;;;4907433;29;20044;-85
2022/03/26 09:56:56;;;;;;;31.98;15.70;;;;;;;;;;4908717;29;21606;-80
2022/03/26 09:59:22;;;;;;;25.00;14.27;;;;;;;;;;4911982;29;20083;-89
2022/03/26 10:01:49;;;;;;;26.13;13.40;;;;;;;;;;4908996;29;20084;-86
2022/03/26 10:04:16;;;;;;;22.75;14.25;;;;;;;;;;4910489;29;20115;-86
2022/03/26 10:06:49;;;;;;;24.98;14.88;;;;;;;;;;4911820;29;20111;-90
2022/03/26 10:09:34;;;;;;;;;;;;;;;;;;4911833;29;20032;-86
2022/03/26 10:12:01;;;;;;;20.48;11.32;;;;;;;;;;4913402;29;19915;-84
2022/03/26 10:14:47;;;;;;;22.80;12.45;;;;;;;;;;4911726;29;20240;-80
2022/03/26 10:17:17;;;;;;;23.40;12.05;;;;;;;;;;4907719;29;20040;-82
2022/03/26 10:19:50;;;;;;;25.52;13.52;;;;;;;;;;4895300;29;20032;-81
2022/03/26 10:22:35;;;;;;;22.17;13.88;;;;;;;;;;4910649;29;20036;-88
2022/03/26 10:25:10;;;;;;;26.50;13.85;;;;;;;;;;4911050;29;20032;-82
2022/03/26 10:27:44;;;;;;;22.98;13.73;;;;;;;;;;4908028;29;20032;-85
2022/03/26 10:33:18;;;;;;;27.10;14.25;;;;;;;;;;4914167;29;20094;-81
2022/03/26 10:35:52;;;;;;;23.10;13.95;;;;;;;;;;4900336;29;20031;-89
2022/03/26 10:38:17;;;;;;;23.40;14.52;;;;;;;;;;4895041;29;20500;-84
2022/03/26 10:40:44;;;;;;;25.70;13.95;;;;;;;;;;4919809;29;20036;-88
2022/03/26 10:43:12;;;;;;;22.92;14.13;;;;;;;;;;4893861;29;20356;-84
2022/03/26 10:45:51;;;;;;;24.33;13.77;;;;;;;;;;4895369;29;20576;-80
2022/03/26 10:48:24;;;;;;;26.35;13.98;;;;;;;;;;4894819;29;20130;-82
2022/03/26 10:50:53;;;;;;;;;;;;;;;;;;4892359;29;20047;-81
2022/03/26 10:53:19;;;;;;;21.20;13.05;;;;;;;;;;4890827;29;20400;-84
2022/03/26 10:55:44;;;;;;;21.98;13.93;;;;;;;;;;4914278;29;20072;-81
2022/03/26 10:58:09;;;;;;;23.67;14.80;;;;;;;;;;4895189;29;20066;-83
2022/03/26 11:00:35;;;;;;;24.73;14.13;;;;;;;;;;4897619;29;20040;-82
2022/03/26 11:03:01;;;;;;;21.77;14.57;;;;;;;;;;4896986;29;20036;-84
2022/03/26 11:05:29;;;;;;;22.17;13.80;;;;;;;;;;4913280;29;20067;-83
2022/03/26 11:07:55;;;;;;;21.80;14.65;;;;;;;;;;4899805;29;20035;-81
2022/03/26 11:10:24;;;;;;;24.33;14.95;;;;;;;;;;4892468;29;20032;-84
2022/03/26 11:12:50;;;;;;;22.60;14.30;;;;;;;;;;4909029;29;20035;-81
2022/03/26 11:18:18;;;;;;;23.80;15.07;;;;;;;;;;5748430;23;20111;-81
2022/03/26 11:20:46;;;;;;;;;;;;;;;;;;4991974;28;20065;-89
2022/03/26 11:23:36;;;;;;;25.95;14.43;;;;;;;;;;5005107;28;19964;-80
2022/03/26 11:26:29;;;;;;;24.92;15.02;;;;;;;;;;4986271;28;20046;-79
2022/03/26 11:29:09;;;;;;;22.35;14.95;;;;;;;;;;4985499;28;20030;-91
2022/03/26 11:31:55;;;;;;;27.55;15.95;;;;;;;;;;4992207;28;20031;-80
2022/03/26 11:34:20;;;;;;;22.75;14.63;;;;;;;;;;4991836;28;20176;-90
2022/03/26 11:36:49;;;;;;;23.20;15.13;;;;;;;;;;4990809;28;20112;-81
2022/03/26 11:39:20;;;;;;;21.92;15.07;;;;;;;;;;4985410;28;20030;-80
2022/03/26 11:41:46;;;;;;;23.27;14.98;;;;;;;;;;4986374;28;20470;-81
2022/03/26 11:44:13;;;;;;;22.83;15.05;;;;;;;;;;4988485;28;20030;-79
2022/03/26 11:52:21;;;;;;;24.00;14.63;;;;;;;;;;4991026;28;20072;-80
2022/03/26 11:54:48;;;;;;;24.95;14.25;;;;;;;;;;4986291;28;20026;-80
2022/03/26 11:57:21;;;;;;;24.25;14.30;;;;;;;;;;4990212;28;20057;-88
2022/03/26 11:59:48;;;;;;;26.35;14.43;;;;;;;;;;4995740;28;20064;-83
2022/03/26 12:02:35;;;;;;;20.55;13.27;;;;;;;;;;5007297;28;20493;-79
2022/03/26 12:08:40;;;;;;;25.20;13.50;;;;;;;;;;4991631;28;20037;-80
2022/03/26 12:11:06;;;;;;;24.60;14.23;;;;;;;;;;4965819;28;20044;-83
2022/03/26 12:13:33;;;;;;;21.60;13.73;;;;;;;;;;4991812;28;20030;-81
2022/03/26 12:16:03;;;;;;;18.88;13.20;;;;;;;;;;4986850;28;20030;-83
2022/03/26 12:18:39;;;;;;;19.52;13.57;;;;;;;;;;4989973;28;20121;-83
2022/03/26 12:21:24;;;;;;;21.65;14.80;;;;;;;;;;4998057;28;20035;-83
2022/03/26 12:23:52;;;;;;;24.00;13.45;;;;;;;;;;4998018;28;20026;-81
2022/03/26 12:26:17;;;;;;;18.88;13.15;;;;;;;;;;4995311;28;20022;-81
2022/03/26 12:28:43;;;;;;;21.25;13.35;;;;;;;;;;4996629;28;20393;-83
2022/03/26 12:31:09;;;;;;;19.65;13.32;;;;;;;;;;5003964;28;20025;-80
2022/03/26 12:33:43;;;;;;;22.88;13.82;;;;;;;;;;4997899;28;20482;-81
2022/03/26 12:36:09;;;;;;;18.85;13.55;;;;;;;;;;5000911;28;20482;-90
2022/03/26 12:38:35;;;;;;;21.10;13.23;;;;;;;;;;4998433;28;20026;-81
2022/03/26 12:41:03;;;;;;;19.17;13.00;;;;;;;;;;4999422;28;20084;-80
2022/03/26 12:43:29;;;;;;;18.17;13.10;;;;;;;;;;5004623;28;20056;-91
2022/03/26 12:45:58;;;;;;;20.27;13.50;;;;;;;;;;4998344;28;20050;-79
2022/03/26 12:48:29;;;;;;;17.20;12.15;;;;;;;;;;5001545;28;20117;-84
2022/03/26 12:51:00;;;;;;;17.55;11.82;;;;;;;;;;4992101;28;20025;-91
2022/03/26 12:53:25;;;;;;;14.88;10.27;;;;;;;;;;5001420;28;20026;-81
2022/03/26 12:55:56;;;;;;;15.05;10.43;;;;;;;;;;4996501;28;20040;-81
2022/03/26 13:01:10;;;;;;;15.68;11.10;;;;;;;;;;5006137;28;20141;-83
2022/03/26 13:03:36;;;;;;;16.08;10.25;;;;;;;;;;4998959;28;20026;-92
2022/03/26 13:06:06;;;;;;;16.38;10.20;;;;;;;;;;4996091;28;20500;-79
2022/03/26 13:08:32;;;;;;;15.55;10.23;;;;;;;;;;5014120;28;20294;-78
2022/03/26 13:11:03;;;;;;;14.40;10.55;;;;;;;;;;4996779;28;20084;-79
2022/03/26 13:13:30;;;;;;;14.95;10.73;;;;;;;;;;4999300;28;20085;-79
2022/03/26 13:16:00;;;;;;;17.08;11.00;;;;;;;;;;4990609;28;20022;-80
2022/03/26 13:18:26;;;;;;;16.10;10.30;;;;;;;;;;5003633;28;20053;-83
2022/03/26 13:20:51;;;;;;;14.63;10.85;;;;;;;;;;4995872;28;20026;-79
2022/03/26 13:23:16;;;;;;;14.50;9.48;;;;;;;;;;5002861;28;20018;-83
2022/03/26 13:25:43;;;;;;;13.02;8.93;;;;;;;;;;5000426;28;20034;-94
2022/03/26 13:28:32;;;;;;;14.57;9.32;;;;;;;;;;4993450;28;20034;-83
2022/03/26 13:30:58;;;;;;;15.95;10.02;;;;;;;;;;4997418;28;20401;-79
2022/03/26 13:33:29;;;;;;;19.02;10.27;;;;;;;;;;5002325;28;20109;-93
2022/03/26 13:35:57;;;;;;;18.80;10.63;;;;;;;;;;4995484;28;20029;-79
2022/03/26 13:38:27;;;;;;;18.15;10.60;;;;;;;;;;5015600;28;20040;-80
2022/03/26 13:40:53;;;;;;;18.75;10.13;;;;;;;;;;4993803;28;20033;-83
2022/03/26 13:43:19;;;;;;;17.02;10.05;;;;;;;;;;5000488;28;20030;-79
2022/03/26 13:45:45;;;;;;;15.93;10.38;;;;;;;;;;4998519;28;20479;-79
2022/03/26 13:48:11;;;;;;;16.17;10.48;;;;;;;;;;5002760;28;20057;-80
2022/03/26 13:50:37;;;;;;;15.70;10.60;;;;;;;;;;5002717;28;20029;-79
2022/03/26 13:53:04;;;;;;;16.25;10.95;;;;;;;;;;5001080;28;20085;-91
2022/03/26 13:55:32;;;;;;;20.20;11.68;;;;;;;;;;4982062;28;20064;-79
2022/03/26 13:57:59;;;;;;;19.63;11.52;;;;;;;;;;5002354;28;20025;-92
2022/03/26 14:00:27;;;;;;;25.27;12.23;;;;;;;;;;4987985;28;20122;-80
2022/03/26 14:02:53;;;;;;;20.77;12.23;;;;;;;;;;4990825;28;20044;-84
2022/03/26 14:05:28;;;;;;;20.05;11.93;;;;;;;;;;4991009;28;20030;-84
2022/03/26 14:08:05;;;;;;;22.88;12.20;;;;;;;;;;4995432;28;20096;-79
2022/03/26 14:10:40;;;;;;;24.73;13.02;;;;;;;;;;4989747;28;20133;-84
2022/03/26 14:13:07;;;;;;;20.77;13.15;;;;;;;;;;4997380;28;20073;-88
2022/03/26 14:15:33;;;;;;;22.10;12.48;;;;;;;;;;4998214;28;20077;-83
2022/03/26 14:18:00;;;;;;;20.33;12.43;;;;;;;;;;4993051;28;20058;-79
2022/03/26 14:20:26;;;;;;;24.13;12.57;;;;;;;;;;5003783;28;20065;-80
2022/03/26 14:22:58;;;;;;;22.42;12.65;;;;;;;;;;4990903;28;20067;-81
2022/03/26 14:25:28;;;;;;;21.95;11.43;;;;;;;;;;4990373;28;20041;-83
2022/03/26 14:27:57;;;;;;;19.95;11.45;;;;;;;;;;4989751;28;20381;-83
2022/03/26 14:30:23;;;;;;;23.92;11.50;;;;;;;;;;4992803;28;20033;-81
2022/03/26 14:32:49;;;;;;;21.42;11.88;;;;;;;;;;4992219;28;20054;-82
2022/03/26 14:35:14;;;;;;;23.52;11.73;;;;;;;;;;4994635;28;20073;-78